Saipan, Northern Mariana Islands
Current Conditions -  °F | °C
As of 11:54 AM on Monday 24 Nov 2014 (Local Time) from PGSN Reporting Station
Scattered Clouds Scattered Clouds  
Wind Chill: 86°   Ceiling: Unl
Heat Index: 96°   Visibility: 10mi
Dew Point: 76°   Wind: 18mph
Humidity: 72%   Direction: 110°ESE
Pressure: 29.89"   Gusts: NA
Location:  15.13°N, 145.7°E
Report Text: PGSN 240154Z 11016KT 10SM FEW024 SCT031 30/24 A2989 RMK AO2 SLP144 T03000244 PNO $
Loading
Personal Weather Stations






























Interactive Weather Map New forecast layout! Learn more

10-Day Weather Forecast

Advertisements
Track Severe Weather on mobile